createdAt,value
2022-10-29T00:00:59.794Z,15.05
2022-10-29T00:02:02.244Z,16.48
2022-10-29T00:03:08.266Z,16.88
2022-10-29T00:04:12.361Z,16.83
2022-10-29T00:05:15.541Z,15.20
2022-10-29T00:06:18.501Z,16.75
2022-10-29T00:07:24.359Z,16.13
2022-10-29T00:08:30.046Z,15.52
2022-10-29T00:09:33.185Z,15.32
2022-10-29T00:10:35.563Z,15.07
2022-10-29T00:11:38.229Z,15.63
2022-10-29T00:12:40.920Z,14.90
2022-10-29T00:14:03.228Z,15.68
2022-10-29T00:15:15.236Z,14.40
2022-10-29T00:16:21.099Z,15.98
2022-10-29T00:17:24.418Z,15.10
2022-10-29T00:18:30.309Z,15.27
2022-10-29T00:19:42.201Z,14.60
2022-10-29T00:20:50.931Z,14.57
2022-10-29T00:23:24.785Z,14.43
2022-10-29T00:24:37.068Z,14.15
2022-10-29T00:26:12.012Z,14.82
2022-10-29T00:27:22.167Z,14.93
2022-10-29T00:28:32.448Z,13.45
2022-10-29T00:29:39.073Z,14.45
2022-10-29T00:30:42.375Z,14.77
2022-10-29T00:31:46.410Z,13.93
2022-10-29T00:32:48.513Z,14.55
2022-10-29T00:33:53.354Z,14.13
2022-10-29T00:34:55.307Z,13.98
2022-10-29T00:36:13.813Z,13.80
2022-10-29T00:38:39.534Z,14.15
2022-10-29T00:39:49.143Z,14.73
2022-10-29T00:41:12.853Z,12.93
2022-10-29T00:42:17.515Z,13.20
2022-10-29T00:43:29.279Z,12.98
2022-10-29T00:44:37.868Z,14.25
2022-10-29T00:46:01.744Z,12.38
2022-10-29T00:47:20.446Z,14.57
2022-10-29T00:48:26.761Z,12.43
2022-10-29T00:49:37.244Z,12.02
2022-10-29T00:52:15.462Z,12.50
2022-10-29T00:53:27.092Z,11.32
2022-10-29T00:54:42.586Z,11.30
2022-10-29T00:55:53.746Z,12.13
2022-10-29T00:57:19.049Z,13.43
2022-10-29T00:58:21.859Z,12.65
2022-10-29T00:59:26.943Z,13.50
2022-10-29T01:00:33.713Z,12.52
2022-10-29T01:01:37.896Z,13.60
2022-10-29T01:02:43.070Z,14.10
2022-10-29T01:03:47.632Z,13.77
2022-10-29T01:04:51.280Z,14.88
2022-10-29T01:05:55.195Z,14.23
2022-10-29T01:07:11.486Z,14.55
2022-10-29T01:08:18.511Z,13.77
2022-10-29T01:09:30.409Z,14.10
2022-10-29T01:11:09.661Z,13.65
2022-10-29T01:12:24.644Z,14.02
2022-10-29T01:13:49.115Z,14.48
2022-10-29T01:14:58.445Z,13.98
2022-10-29T01:16:27.354Z,14.45
2022-10-29T01:17:45.425Z,14.35
2022-10-29T01:19:24.903Z,14.75
2022-10-29T01:20:49.793Z,14.70
2022-10-29T01:22:02.521Z,14.77
2022-10-29T01:23:25.313Z,14.35
2022-10-29T01:25:04.036Z,14.88
2022-10-29T01:26:36.360Z,15.30
2022-10-29T01:27:52.109Z,15.02
2022-10-29T01:29:58.464Z,15.27
2022-10-29T01:33:05.043Z,15.18
2022-10-29T01:34:31.369Z,14.25
2022-10-29T01:36:01.448Z,14.60
2022-10-29T01:37:21.421Z,16.00
2022-10-29T01:38:36.135Z,14.90
2022-10-29T01:40:06.730Z,15.48
2022-10-29T01:41:37.991Z,15.25
2022-10-29T01:44:46.171Z,15.02
2022-10-29T01:46:10.218Z,14.50
2022-10-29T01:47:21.144Z,15.40
2022-10-29T01:48:53.741Z,15.15
2022-10-29T01:50:06.556Z,14.90
2022-10-29T01:51:19.600Z,14.55
2022-10-29T01:52:33.548Z,14.73
2022-10-29T01:53:38.496Z,14.45
2022-10-29T01:54:57.818Z,14.73
2022-10-29T01:56:12.065Z,15.07
2022-10-29T01:58:08.457Z,14.10
2022-10-29T01:59:35.606Z,13.73
2022-10-29T02:01:12.633Z,13.32
2022-10-29T02:02:48.099Z,13.43
2022-10-29T02:04:27.404Z,14.02
2022-10-29T02:05:37.788Z,13.77
2022-10-29T02:07:05.308Z,14.55
2022-10-29T02:08:33.318Z,14.43
2022-10-29T02:10:06.354Z,14.95
2022-10-29T02:11:32.297Z,13.45
2022-10-29T02:12:53.651Z,14.00
2022-10-29T02:14:04.388Z,13.48
2022-10-29T02:15:49.834Z,15.18
2022-10-29T02:16:54.610Z,14.80
2022-10-29T02:18:04.841Z,14.98
2022-10-29T02:19:07.433Z,15.07
2022-10-29T02:20:15.755Z,14.50
2022-10-29T02:21:20.289Z,14.18
2022-10-29T02:22:23.206Z,15.50
2022-10-29T02:23:25.560Z,15.93
2022-10-29T02:24:27.913Z,15.07
2022-10-29T02:25:31.833Z,14.05
2022-10-29T02:26:36.672Z,15.35
2022-10-29T02:27:40.896Z,14.45
2022-10-29T02:28:44.938Z,15.00
2022-10-29T02:29:49.413Z,15.27
2022-10-29T02:31:03.569Z,15.13
2022-10-29T02:32:11.350Z,14.93
2022-10-29T02:33:14.527Z,14.73
2022-10-29T02:34:16.894Z,14.18
2022-10-29T02:35:19.013Z,14.32
2022-10-29T02:36:26.766Z,15.27
2022-10-29T02:37:38.489Z,15.30
2022-10-29T02:38:44.139Z,14.52
2022-10-29T02:39:47.133Z,14.30
2022-10-29T02:40:53.452Z,15.00
2022-10-29T02:42:01.255Z,14.05
2022-10-29T02:43:05.981Z,14.52
2022-10-29T02:44:13.446Z,13.93
2022-10-29T02:45:28.109Z,15.00
2022-10-29T02:46:49.864Z,13.77
2022-10-29T02:47:53.008Z,13.77
2022-10-29T02:48:57.861Z,14.80
2022-10-29T02:50:03.142Z,14.85
2022-10-29T02:51:10.842Z,14.10
2022-10-29T02:52:19.145Z,14.18
2022-10-29T02:53:36.630Z,14.20
2022-10-29T02:54:40.626Z,12.73
2022-10-29T02:55:49.226Z,13.57
2022-10-29T02:57:00.955Z,13.50
2022-10-29T02:58:09.178Z,14.05
2022-10-29T02:59:25.451Z,14.02
2022-10-29T03:00:28.188Z,14.30
2022-10-29T03:01:32.532Z,14.02
2022-10-29T03:03:02.433Z,14.20
2022-10-29T03:04:11.581Z,14.40
2022-10-29T03:05:20.661Z,13.77
2022-10-29T03:06:39.729Z,13.85
2022-10-29T03:09:15.400Z,14.15
2022-10-29T03:11:53.397Z,14.73
2022-10-29T03:13:07.930Z,13.88
2022-10-29T03:14:30.461Z,15.23
2022-10-29T03:15:40.193Z,14.05
2022-10-29T03:16:48.988Z,14.85
2022-10-29T03:18:04.881Z,15.18
2022-10-29T03:20:31.971Z,14.48
2022-10-29T03:21:43.290Z,14.20
2022-10-29T03:22:50.723Z,15.52
2022-10-29T03:25:16.167Z,15.02
2022-10-29T03:26:27.977Z,15.00
2022-10-29T03:27:49.156Z,14.38
2022-10-29T03:29:02.394Z,14.15
2022-10-29T03:30:24.914Z,14.75
2022-10-29T03:31:36.677Z,14.77
2022-10-29T03:32:48.278Z,13.88
2022-10-29T03:33:51.028Z,15.55
2022-10-29T03:35:02.684Z,14.73
2022-10-29T03:36:08.777Z,15.23
2022-10-29T03:37:18.788Z,15.27
2022-10-29T03:38:27.877Z,15.90
2022-10-29T03:39:41.982Z,16.10
2022-10-29T03:40:52.782Z,15.70
2022-10-29T03:42:01.750Z,16.67
2022-10-29T03:43:05.939Z,16.10
2022-10-29T03:44:15.440Z,15.48
2022-10-29T03:45:18.840Z,17.40
2022-10-29T03:46:21.423Z,16.00
2022-10-29T03:47:23.528Z,16.95
2022-10-29T03:48:26.655Z,16.30
2022-10-29T03:49:30.840Z,17.35
2022-10-29T03:50:37.397Z,17.40
2022-10-29T03:51:47.319Z,16.90
2022-10-29T03:52:59.090Z,16.52
2022-10-29T03:54:07.143Z,17.85
2022-10-29T03:55:12.853Z,17.58
2022-10-29T03:56:33.580Z,17.20
2022-10-29T03:57:36.417Z,15.75
2022-10-29T03:58:50.266Z,17.48
2022-10-29T03:59:56.208Z,16.45
2022-10-29T04:01:05.089Z,15.95
2022-10-29T04:02:17.690Z,16.60
2022-10-29T04:03:23.027Z,15.48
2022-10-29T04:04:28.560Z,15.13
2022-10-29T04:05:51.235Z,15.90
2022-10-29T04:07:08.940Z,16.00
2022-10-29T04:08:27.659Z,16.85
2022-10-29T04:09:31.359Z,17.98
2022-10-29T04:10:38.370Z,16.83
2022-10-29T04:11:49.813Z,16.92
2022-10-29T04:12:53.122Z,16.65
2022-10-29T04:13:57.791Z,15.73
2022-10-29T04:15:02.140Z,16.13
2022-10-29T04:16:09.974Z,16.65
2022-10-29T04:17:16.634Z,16.20
2022-10-29T04:18:28.122Z,15.68
2022-10-29T04:28:41.769Z,15.93
2022-10-29T04:29:25.082Z,15.75
2022-10-29T04:30:50.725Z,16.13
2022-10-29T04:31:57.483Z,14.82
2022-10-29T04:33:05.430Z,14.45
2022-10-29T04:34:09.071Z,15.70
2022-10-29T04:35:12.064Z,15.07
2022-10-29T04:36:21.924Z,15.23
2022-10-29T04:37:31.080Z,15.95
2022-10-29T04:38:34.566Z,14.40
2022-10-29T04:39:43.090Z,14.55
2022-10-29T04:40:46.170Z,15.13
2022-10-29T04:41:52.141Z,14.55
2022-10-29T04:42:55.714Z,14.60
2022-10-29T04:44:00.494Z,13.75
2022-10-29T04:46:29.515Z,14.05
2022-10-29T04:47:47.716Z,13.68
2022-10-29T04:49:07.609Z,14.02
2022-10-29T04:50:13.665Z,14.63
2022-10-29T04:51:29.231Z,13.70
2022-10-29T04:52:40.131Z,13.32
2022-10-29T04:54:00.514Z,13.00
2022-10-29T04:55:03.803Z,13.57
2022-10-29T04:56:24.987Z,13.90
2022-10-29T04:57:28.115Z,13.30
2022-10-29T04:58:46.847Z,12.85
2022-10-29T05:00:16.220Z,13.13
2022-10-29T05:01:48.013Z,13.32
2022-10-29T05:06:29.039Z,13.25
2022-10-29T05:07:55.714Z,13.48
2022-10-29T05:09:10.163Z,13.82
2022-10-29T05:10:35.869Z,12.90
2022-10-29T05:11:43.224Z,12.65
2022-10-29T05:12:51.513Z,13.32
2022-10-29T05:14:04.060Z,13.02
2022-10-29T05:15:08.410Z,11.93
2022-10-29T05:16:16.413Z,13.18
2022-10-29T05:17:45.438Z,12.65
2022-10-29T05:18:49.577Z,12.32
2022-10-29T05:19:58.451Z,12.13
2022-10-29T05:21:04.759Z,12.27
2022-10-29T05:22:12.436Z,12.10
2022-10-29T05:23:17.434Z,12.35
2022-10-29T05:24:25.000Z,12.05
2022-10-29T05:25:30.706Z,11.75
2022-10-29T05:26:46.639Z,11.35
2022-10-29T05:28:05.656Z,11.85
2022-10-29T05:29:18.942Z,11.68
2022-10-29T05:30:25.093Z,11.75
2022-10-29T05:31:34.906Z,11.13
2022-10-29T05:32:49.327Z,12.27
2022-10-29T05:33:55.486Z,12.00
2022-10-29T05:34:58.309Z,11.90
2022-10-29T05:36:02.779Z,12.32
2022-10-29T05:37:05.053Z,12.43
2022-10-29T05:38:09.684Z,11.48
2022-10-29T05:39:14.045Z,11.55
2022-10-29T05:40:28.568Z,11.95
2022-10-29T05:41:31.070Z,12.52
2022-10-29T05:42:43.653Z,14.13
2022-10-29T05:44:01.926Z,12.95
2022-10-29T05:45:16.814Z,13.18
2022-10-29T05:46:19.185Z,14.18
2022-10-29T05:47:24.999Z,15.13
2022-10-29T05:48:29.979Z,15.27
2022-10-29T05:49:33.962Z,16.98
2022-10-29T05:50:37.457Z,18.02
2022-10-29T05:51:42.432Z,19.67
2022-10-29T05:52:58.643Z,19.33
2022-10-29T05:54:04.537Z,19.25
2022-10-29T05:55:15.432Z,17.80
2022-10-29T05:56:21.321Z,19.80
2022-10-29T05:57:27.801Z,17.95
2022-10-29T05:58:33.483Z,17.92
2022-10-29T05:59:38.204Z,17.77
2022-10-29T06:00:53.024Z,18.65
2022-10-29T06:01:55.773Z,19.92
2022-10-29T06:03:00.596Z,20.00
2022-10-29T06:04:02.907Z,20.42
2022-10-29T06:05:05.514Z,19.52
2022-10-29T06:06:09.083Z,19.70
2022-10-29T06:07:11.343Z,17.17
2022-10-29T06:08:16.085Z,17.73
2022-10-29T06:09:25.512Z,17.75
2022-10-29T06:10:30.184Z,18.05
2022-10-29T06:11:36.963Z,17.60
2022-10-29T06:12:41.307Z,17.10
2022-10-29T06:13:43.644Z,17.42
2022-10-29T06:14:46.217Z,19.38
2022-10-29T06:16:06.600Z,18.88
2022-10-29T06:17:13.381Z,19.55
2022-10-29T06:18:17.053Z,20.13
2022-10-29T06:19:27.058Z,17.55
2022-10-29T06:20:34.099Z,16.98
2022-10-29T06:21:41.821Z,15.85
2022-10-29T06:22:46.660Z,16.52
2022-10-29T06:24:00.990Z,16.55
2022-10-29T06:25:06.628Z,15.82
2022-10-29T06:26:15.535Z,16.88
2022-10-29T06:27:23.011Z,14.73
2022-10-29T06:28:40.897Z,14.82
2022-10-29T06:29:47.243Z,16.77
2022-10-29T06:30:50.545Z,16.95
2022-10-29T06:31:53.489Z,16.25
2022-10-29T06:33:00.506Z,16.35
2022-10-29T06:34:06.697Z,16.73
2022-10-29T06:35:12.487Z,18.98
2022-10-29T06:36:14.893Z,16.00
2022-10-29T06:37:19.083Z,15.77
2022-10-29T06:38:22.173Z,16.00
2022-10-29T06:39:24.353Z,15.23
2022-10-29T06:40:26.756Z,16.83
2022-10-29T06:41:34.486Z,16.80
2022-10-29T06:42:38.261Z,15.75
2022-10-29T06:43:45.257Z,15.73
2022-10-29T06:44:50.396Z,16.77
2022-10-29T06:45:52.865Z,17.70
2022-10-29T06:46:55.263Z,18.52
2022-10-29T06:47:57.824Z,18.67
2022-10-29T06:49:10.024Z,17.23
2022-10-29T06:50:35.330Z,18.27
2022-10-29T06:51:38.722Z,18.30
2022-10-29T06:52:42.058Z,17.60
2022-10-29T06:53:46.316Z,18.02
2022-10-29T06:55:00.361Z,18.95
2022-10-29T06:56:03.725Z,18.80
2022-10-29T06:57:05.856Z,18.50
2022-10-29T06:58:19.148Z,19.85
2022-10-29T06:59:25.144Z,18.15
2022-10-29T07:00:37.062Z,18.08
2022-10-29T07:01:41.601Z,18.48
2022-10-29T07:02:48.586Z,17.83
2022-10-29T07:03:56.970Z,18.05
2022-10-29T07:05:02.183Z,19.00
2022-10-29T07:06:07.772Z,19.42
2022-10-29T07:07:17.600Z,18.30
2022-10-29T07:08:29.565Z,20.25
2022-10-29T07:09:38.773Z,17.58
2022-10-29T07:10:41.383Z,18.63
2022-10-29T07:11:45.077Z,18.92
2022-10-29T07:12:52.881Z,20.35
2022-10-29T07:13:57.335Z,18.73
2022-10-29T07:14:59.153Z,19.00
2022-10-29T07:16:04.906Z,17.92
2022-10-29T07:17:07.625Z,18.00
2022-10-29T07:18:13.325Z,18.88
2022-10-29T07:19:16.489Z,18.02
2022-10-29T07:20:19.253Z,19.50
2022-10-29T07:21:21.638Z,19.23
2022-10-29T07:22:23.744Z,19.80
2022-10-29T07:24:00.142Z,17.48
2022-10-29T07:25:23.415Z,17.30
2022-10-29T07:26:32.529Z,18.90
2022-10-29T07:27:43.767Z,18.13
2022-10-29T07:29:07.720Z,17.65
2022-10-29T07:30:21.171Z,20.13
2022-10-29T07:31:34.170Z,20.10
2022-10-29T07:33:01.568Z,18.15
2022-10-29T07:34:16.346Z,19.92
2022-10-29T07:35:24.435Z,18.48
2022-10-29T07:36:37.632Z,19.70
2022-10-29T07:38:10.870Z,19.27
2022-10-29T07:39:20.258Z,18.88
2022-10-29T07:40:47.259Z,19.65
2022-10-29T07:41:56.716Z,19.40
2022-10-29T07:43:12.618Z,20.15
2022-10-29T07:44:14.847Z,19.45
2022-10-29T07:45:18.121Z,20.73
2022-10-29T07:46:23.111Z,19.83
2022-10-29T07:47:25.239Z,18.80
2022-10-29T07:48:27.329Z,18.73
2022-10-29T07:49:32.330Z,18.88
2022-10-29T07:50:34.553Z,18.13
2022-10-29T07:51:40.293Z,20.60
2022-10-29T07:52:45.418Z,19.00
2022-10-29T07:53:48.117Z,20.27
2022-10-29T07:54:50.625Z,18.83
2022-10-29T07:55:55.903Z,15.85
2022-10-29T07:56:57.961Z,18.20
2022-10-29T07:58:03.501Z,17.00
2022-10-29T07:59:06.283Z,15.82
2022-10-29T08:00:09.265Z,15.88
2022-10-29T08:01:11.613Z,15.73
2022-10-29T08:02:14.538Z,15.82
2022-10-29T08:03:17.383Z,16.02
2022-10-29T08:04:20.526Z,15.30
2022-10-29T08:05:25.027Z,14.30
2022-10-29T08:06:27.235Z,14.07
2022-10-29T08:07:31.642Z,13.73
2022-10-29T08:08:37.003Z,14.30
2022-10-29T08:09:39.124Z,15.10
2022-10-29T08:10:41.451Z,15.77
2022-10-29T08:12:54.389Z,16.48
2022-10-29T08:13:57.416Z,14.98
2022-10-29T08:15:00.741Z,15.43
2022-10-29T08:16:04.912Z,14.52
2022-10-29T08:17:07.181Z,14.82
2022-10-29T08:18:16.476Z,14.23
2022-10-29T08:19:20.424Z,14.48
2022-10-29T08:20:25.168Z,13.95
2022-10-29T08:21:27.671Z,14.82
2022-10-29T08:22:34.150Z,13.80
2022-10-29T08:23:38.546Z,12.27
2022-10-29T08:24:42.251Z,13.98
2022-10-29T08:25:45.841Z,14.10
2022-10-29T08:26:59.967Z,12.13
2022-10-29T08:28:12.039Z,13.45
2022-10-29T08:29:19.604Z,13.88
2022-10-29T08:30:21.887Z,13.57
2022-10-29T08:31:24.359Z,14.75
2022-10-29T08:32:27.828Z,16.45
2022-10-29T08:33:31.155Z,16.52
2022-10-29T08:34:34.397Z,16.70
2022-10-29T08:35:42.118Z,15.45
2022-10-29T08:36:47.876Z,16.05
2022-10-29T08:37:50.633Z,15.80
2022-10-29T08:38:53.792Z,17.27
2022-10-29T08:39:56.234Z,15.80
2022-10-29T08:41:02.116Z,16.58
2022-10-29T08:42:36.401Z,17.88
2022-10-29T08:44:25.121Z,17.88
2022-10-29T08:45:47.962Z,20.00
2022-10-29T08:47:14.056Z,18.95
2022-10-29T08:48:47.323Z,19.52
2022-10-29T08:50:08.149Z,20.58
2022-10-29T08:51:44.422Z,22.67
2022-10-29T08:52:53.415Z,22.98
2022-10-29T08:55:38.160Z,22.92
2022-10-29T08:56:44.450Z,23.55
2022-10-29T08:58:03.528Z,24.02
2022-10-29T08:59:17.784Z,24.70
2022-10-29T09:00:27.124Z,25.70
2022-10-29T09:01:31.410Z,26.70
2022-10-29T09:02:36.579Z,25.38
2022-10-29T09:03:38.779Z,25.63
2022-10-29T09:04:40.587Z,26.73
2022-10-29T09:06:12.397Z,27.25
2022-10-29T09:07:48.004Z,26.90
2022-10-29T09:09:01.877Z,26.95
2022-10-29T09:10:36.978Z,28.58
2022-10-29T09:11:56.290Z,27.45
2022-10-29T09:13:10.314Z,32.80
2022-10-29T09:14:33.410Z,29.33
2022-10-29T09:16:01.754Z,28.20
2022-10-29T09:17:29.736Z,29.90
2022-10-29T09:18:57.958Z,27.25
2022-10-29T09:20:23.564Z,30.42
2022-10-29T09:21:52.927Z,27.27
2022-10-29T09:23:09.508Z,28.17
2022-10-29T09:24:31.607Z,30.25
2022-10-29T09:25:45.815Z,28.98
2022-10-29T09:26:59.668Z,28.27
2022-10-29T09:28:27.706Z,30.75
2022-10-29T09:29:59.881Z,29.67
2022-10-29T09:31:17.161Z,29.60
2022-10-29T09:32:42.395Z,30.90
2022-10-29T09:33:47.967Z,29.85
2022-10-29T09:34:57.230Z,28.65
2022-10-29T09:36:00.522Z,28.95
2022-10-29T09:37:04.944Z,27.65
2022-10-29T09:38:27.981Z,28.95
2022-10-29T09:39:35.298Z,30.92
2022-10-29T09:40:40.366Z,28.73
2022-10-29T09:41:44.493Z,30.33
2022-10-29T09:42:48.082Z,30.70
2022-10-29T09:44:14.004Z,32.65
2022-10-29T09:45:22.635Z,29.70
2022-10-29T09:46:46.149Z,30.25
2022-10-29T09:47:50.396Z,29.58
2022-10-29T09:49:21.184Z,29.85
2022-10-29T09:50:47.008Z,28.23
2022-10-29T09:52:07.902Z,29.30
2022-10-29T09:53:10.060Z,28.90
2022-10-29T09:54:12.302Z,28.05
2022-10-29T09:55:25.500Z,29.33
2022-10-29T09:56:27.488Z,28.20
2022-10-29T09:57:32.029Z,28.23
2022-10-29T09:58:38.987Z,24.88
2022-10-29T10:00:10.673Z,26.80
2022-10-29T10:02:37.989Z,26.23
2022-10-29T10:03:47.982Z,25.02
2022-10-29T10:04:56.581Z,26.70
2022-10-29T10:05:59.957Z,25.67
2022-10-29T10:07:05.956Z,26.83
2022-10-29T10:08:15.238Z,27.35
2022-10-29T10:09:17.496Z,26.38
2022-10-29T10:10:24.192Z,26.95
2022-10-29T10:11:38.742Z,26.65
2022-10-29T10:12:44.795Z,26.58
2022-10-29T10:14:00.674Z,24.10
2022-10-29T10:15:17.099Z,24.30
2022-10-29T10:16:27.790Z,24.98
2022-10-29T10:17:51.058Z,24.30
2022-10-29T10:18:53.004Z,23.17
2022-10-29T10:19:54.952Z,23.98
2022-10-29T10:21:14.843Z,25.98
2022-10-29T10:22:19.667Z,25.15
2022-10-29T10:23:23.545Z,25.15
2022-10-29T10:24:34.092Z,26.05
2022-10-29T10:25:37.557Z,26.38
2022-10-29T10:26:43.441Z,25.17
2022-10-29T10:27:45.323Z,25.55
2022-10-29T10:29:03.371Z,24.48
2022-10-29T10:30:05.065Z,25.10
2022-10-29T10:31:16.645Z,25.55
2022-10-29T10:32:18.670Z,23.67
2022-10-29T10:33:25.750Z,22.90
2022-10-29T10:34:38.662Z,23.48
2022-10-29T10:35:40.959Z,23.73
2022-10-29T10:37:04.487Z,23.77
2022-10-29T10:38:10.015Z,23.95
2022-10-29T10:39:44.009Z,22.25
2022-10-29T10:41:01.052Z,22.10
2022-10-29T10:42:18.343Z,22.25
2022-10-29T10:43:23.485Z,23.05
2022-10-29T10:44:26.572Z,24.05
2022-10-29T10:45:36.286Z,22.38
2022-10-29T10:46:42.200Z,23.35
2022-10-29T10:47:49.049Z,23.45
2022-10-29T10:49:03.373Z,23.88
2022-10-29T10:50:32.176Z,20.38
2022-10-29T10:51:37.717Z,21.00
2022-10-29T10:52:40.710Z,21.08
2022-10-29T10:53:42.631Z,21.70
2022-10-29T10:55:34.157Z,20.77
2022-10-29T10:56:58.438Z,22.25
2022-10-29T10:58:11.732Z,21.05
2022-10-29T10:59:17.118Z,23.45
2022-10-29T11:00:21.001Z,21.27
2022-10-29T11:01:34.330Z,21.83
2022-10-29T11:03:00.416Z,23.52
2022-10-29T11:04:20.273Z,22.15
2022-10-29T11:05:34.318Z,22.88
2022-10-29T11:06:40.851Z,23.05
2022-10-29T11:07:48.938Z,22.67
2022-10-29T11:09:04.975Z,21.67
2022-10-29T11:10:12.118Z,20.05
2022-10-29T11:11:16.658Z,21.73
2022-10-29T11:12:57.107Z,23.45
2022-10-29T11:14:06.849Z,22.95
2022-10-29T11:15:12.061Z,24.80
2022-10-29T11:16:28.066Z,21.75
2022-10-29T11:17:37.497Z,23.90
2022-10-29T11:18:50.261Z,23.58
2022-10-29T11:19:55.132Z,23.17
2022-10-29T11:21:15.500Z,24.30
2022-10-29T11:22:34.198Z,24.38
2022-10-29T11:24:21.125Z,23.85
2022-10-29T11:25:43.372Z,22.98
2022-10-29T11:26:51.563Z,24.17
2022-10-29T11:27:58.789Z,24.13
2022-10-29T11:29:05.070Z,25.48
2022-10-29T11:30:12.329Z,23.83
2022-10-29T11:31:29.382Z,23.08
2022-10-29T11:32:45.378Z,24.10
2022-10-29T11:34:14.066Z,24.92
2022-10-29T11:35:19.259Z,24.25
2022-10-29T11:36:24.267Z,23.52
2022-10-29T11:37:51.380Z,23.35
2022-10-29T11:39:13.294Z,23.63
2022-10-29T11:40:36.945Z,23.10
2022-10-29T11:41:47.750Z,21.15
2022-10-29T11:42:49.951Z,22.10
2022-10-29T11:43:52.174Z,21.58
2022-10-29T11:44:54.521Z,22.08
2022-10-29T11:46:18.124Z,21.15
2022-10-29T11:48:09.197Z,22.08
2022-10-29T11:49:35.040Z,20.97
2022-10-29T11:51:11.206Z,20.70
2022-10-29T11:52:16.206Z,19.92
2022-10-29T11:53:58.241Z,21.08
2022-10-29T11:55:19.489Z,17.38
2022-10-29T11:56:39.823Z,18.73
2022-10-29T11:57:59.227Z,18.50
2022-10-29T11:59:04.429Z,17.85
2022-10-29T12:00:25.877Z,19.08
2022-10-29T12:01:39.837Z,17.40
2022-10-29T12:02:47.610Z,17.60
2022-10-29T12:05:38.563Z,17.95
2022-10-29T12:06:55.176Z,16.88
2022-10-29T12:08:13.529Z,16.70
2022-10-29T12:09:42.753Z,16.02
2022-10-29T12:10:53.396Z,15.30
2022-10-29T12:12:09.155Z,16.25
2022-10-29T12:13:38.933Z,15.88
2022-10-29T12:14:55.188Z,15.85
2022-10-29T12:16:26.332Z,16.20
2022-10-29T12:17:36.872Z,14.48
2022-10-29T12:19:00.549Z,13.98
2022-10-29T12:20:33.267Z,14.98
2022-10-29T12:21:47.465Z,13.50
2022-10-29T12:23:08.001Z,13.68
2022-10-29T12:24:28.584Z,14.38
2022-10-29T12:25:30.424Z,14.25
2022-10-29T12:26:43.395Z,14.82
2022-10-29T12:27:49.553Z,15.02
2022-10-29T12:29:01.256Z,14.50
2022-10-29T12:30:06.562Z,13.75
2022-10-29T12:31:20.221Z,13.98
2022-10-29T12:32:38.023Z,13.70
2022-10-29T12:33:55.860Z,14.52
2022-10-29T12:35:15.371Z,14.15
2022-10-29T12:36:29.057Z,13.15
2022-10-29T12:38:07.014Z,13.35
2022-10-29T12:39:32.400Z,13.73
2022-10-29T12:40:37.958Z,12.85
2022-10-29T12:41:45.700Z,12.13
2022-10-29T12:42:49.983Z,13.10
2022-10-29T12:43:58.128Z,12.77
2022-10-29T12:45:29.680Z,11.90
2022-10-29T12:46:40.620Z,12.02
2022-10-29T12:48:17.929Z,12.00
2022-10-29T12:49:56.378Z,12.52
2022-10-29T12:51:17.880Z,11.35
2022-10-29T12:52:40.428Z,10.48
2022-10-29T12:54:16.083Z,9.77
2022-10-29T12:55:19.130Z,8.43
2022-10-29T12:56:21.519Z,8.20
2022-10-29T12:57:30.782Z,8.93
2022-10-29T12:58:49.975Z,8.32
2022-10-29T12:59:52.104Z,8.88
2022-10-29T13:00:54.275Z,9.00
2022-10-29T13:02:10.953Z,9.05
2022-10-29T13:03:52.626Z,8.38
2022-10-29T13:05:37.308Z,7.43
2022-10-29T13:06:42.033Z,7.80
2022-10-29T13:07:47.211Z,7.45
2022-10-29T13:08:58.122Z,7.45
2022-10-29T13:10:25.203Z,7.35
2022-10-29T13:11:48.586Z,7.20
2022-10-29T13:12:59.138Z,7.15
2022-10-29T13:14:01.971Z,6.70
2022-10-29T13:15:10.497Z,6.88
2022-10-29T13:16:22.546Z,5.93
2022-10-29T13:17:38.915Z,6.25
2022-10-29T13:19:02.454Z,5.88
2022-10-29T13:20:25.370Z,5.80
2022-10-29T13:21:55.279Z,4.43
2022-10-29T13:22:58.869Z,4.35
2022-10-29T13:24:16.879Z,4.70
2022-10-29T13:25:46.459Z,4.63
2022-10-29T13:27:23.549Z,4.38
2022-10-29T13:28:25.395Z,3.63
2022-10-29T13:30:11.227Z,3.45
2022-10-29T13:31:12.946Z,3.78
2022-10-29T13:32:35.003Z,3.47
2022-10-29T13:33:36.736Z,3.38
2022-10-29T13:34:51.791Z,3.20
2022-10-29T13:35:57.207Z,3.65
2022-10-29T13:37:45.187Z,3.50
2022-10-29T13:39:04.330Z,3.72
2022-10-29T13:40:26.188Z,5.03
2022-10-29T13:41:29.439Z,3.30
2022-10-29T13:42:31.222Z,3.63
2022-10-29T13:43:34.007Z,3.50
2022-10-29T13:44:38.306Z,3.60
2022-10-29T13:45:43.652Z,3.60
2022-10-29T13:47:01.649Z,3.25
2022-10-29T13:48:13.226Z,3.97
2022-10-29T13:49:40.853Z,4.18
2022-10-29T13:50:43.218Z,3.42
2022-10-29T13:51:51.298Z,3.53
2022-10-29T13:52:56.715Z,3.35
2022-10-29T13:54:07.784Z,3.47
2022-10-29T13:55:14.069Z,3.28
2022-10-29T13:56:27.223Z,3.53
2022-10-29T13:58:06.260Z,3.55
2022-10-29T13:59:19.561Z,3.53
2022-10-29T14:00:22.020Z,3.08
2022-10-29T14:01:25.044Z,3.25
2022-10-29T14:02:42.167Z,3.05
2022-10-29T14:04:06.558Z,3.58
2022-10-29T14:05:25.812Z,3.60
2022-10-29T14:06:34.831Z,3.50
2022-10-29T14:07:51.906Z,3.67
2022-10-29T14:09:22.284Z,3.40
2022-10-29T14:10:34.961Z,3.80
2022-10-29T14:11:41.909Z,3.50
2022-10-29T14:12:45.495Z,4.07
2022-10-29T14:13:50.249Z,3.65
2022-10-29T14:15:06.633Z,3.88
2022-10-29T14:16:12.189Z,2.95
2022-10-29T14:17:18.858Z,3.25
2022-10-29T14:18:27.489Z,3.30
2022-10-29T14:19:29.204Z,3.08
2022-10-29T14:20:31.089Z,3.50
2022-10-29T14:21:39.103Z,4.00
2022-10-29T14:22:41.722Z,3.60
2022-10-29T14:23:55.352Z,3.55
2022-10-29T14:24:57.590Z,3.20
2022-10-29T14:26:03.971Z,3.10
2022-10-29T14:27:07.656Z,2.90
2022-10-29T14:28:23.600Z,2.65
2022-10-29T14:29:26.177Z,2.85
2022-10-29T14:30:28.016Z,3.35
2022-10-29T14:31:29.737Z,3.00
2022-10-29T14:32:31.477Z,3.47
2022-10-29T14:33:36.028Z,3.28
2022-10-29T14:34:38.227Z,3.05
2022-10-29T14:35:40.268Z,3.30
2022-10-29T14:36:46.294Z,3.05
2022-10-29T14:37:48.852Z,3.65
2022-10-29T14:39:02.885Z,3.33
2022-10-29T14:40:23.245Z,3.25
2022-10-29T14:41:27.312Z,3.50
2022-10-29T14:42:38.742Z,3.45
2022-10-29T14:43:41.189Z,3.10
2022-10-29T14:44:48.922Z,3.60
2022-10-29T14:45:50.953Z,3.95
2022-10-29T14:47:07.592Z,3.78
2022-10-29T14:48:16.183Z,3.92
2022-10-29T14:49:25.398Z,3.50
2022-10-29T14:50:29.481Z,3.47
2022-10-29T14:51:39.604Z,4.10
2022-10-29T14:52:48.538Z,4.20
2022-10-29T14:53:57.488Z,3.55
2022-10-29T14:55:08.695Z,3.40
2022-10-29T14:57:20.319Z,3.58
2022-10-29T14:58:30.795Z,3.50
2022-10-29T14:59:34.519Z,3.55
2022-10-29T15:00:37.430Z,4.00
2022-10-29T15:01:49.160Z,3.85
2022-10-29T15:02:52.750Z,4.30
2022-10-29T15:04:02.139Z,3.42
2022-10-29T15:05:21.876Z,3.75
2022-10-29T15:06:28.275Z,3.45
2022-10-29T15:07:36.060Z,3.65
2022-10-29T15:08:43.175Z,3.15
2022-10-29T15:09:48.506Z,3.20
2022-10-29T15:10:51.528Z,3.70
2022-10-29T15:12:08.238Z,3.20
2022-10-29T15:13:28.644Z,3.03
2022-10-29T15:14:36.786Z,2.70
2022-10-29T15:15:38.729Z,2.85
2022-10-29T15:16:42.418Z,3.42
2022-10-29T15:18:03.985Z,2.97
2022-10-29T15:19:05.930Z,3.05
2022-10-29T15:20:38.771Z,2.75
2022-10-29T15:21:40.628Z,2.90
2022-10-29T15:22:42.804Z,3.10
2022-10-29T15:23:45.821Z,3.80
2022-10-29T15:24:52.681Z,2.80
2022-10-29T15:26:03.959Z,3.63
2022-10-29T15:27:06.482Z,3.35
2022-10-29T15:28:14.149Z,2.85
2022-10-29T15:29:25.943Z,3.80
2022-10-29T15:30:35.996Z,4.50
2022-10-29T15:31:49.713Z,3.88
2022-10-29T15:32:53.006Z,3.13
2022-10-29T15:33:58.136Z,3.65
2022-10-29T15:35:00.618Z,3.97
2022-10-29T15:36:04.425Z,3.47
2022-10-29T15:37:22.357Z,3.30
2022-10-29T15:38:30.351Z,3.30
2022-10-29T15:39:57.274Z,2.97
2022-10-29T15:41:08.294Z,3.03
2022-10-29T15:42:20.932Z,3.25
2022-10-29T15:43:29.590Z,2.83
2022-10-29T15:44:34.338Z,3.47
2022-10-29T15:45:59.116Z,3.38
2022-10-29T15:47:18.618Z,3.35
2022-10-29T15:48:26.776Z,3.08
2022-10-29T15:49:32.948Z,4.60
2022-10-29T15:51:08.600Z,3.90
2022-10-29T15:52:17.877Z,3.20
2022-10-29T15:53:25.311Z,4.13
2022-10-29T15:54:32.716Z,4.57
2022-10-29T15:55:36.869Z,3.47
2022-10-29T15:56:40.159Z,3.53
2022-10-29T15:57:44.400Z,2.88
2022-10-29T15:58:47.677Z,2.92
2022-10-29T15:59:55.332Z,3.30
2022-10-29T16:01:00.718Z,3.17
2022-10-29T16:02:30.573Z,3.85
2022-10-29T16:04:10.294Z,3.30